Kenn, Washington
Current Conditions -  °F | °C
As of 8:53 PM on Saturday 25 Oct 2014 (Local Time) from KPSC Reporting Station
Few Clouds Few Clouds  
Wind Chill: 63°   Ceiling: Unl
Heat Index: 63°   Visibility: 10mi
Dew Point: 46°   Wind: 18mph
Humidity: 54%   Direction: 230°SW
Pressure: 29.59"   Gusts: 31mph
Location:  46.2117°N, 119.173°W
Report Text: KPSC 260353Z 23016G27KT 10SM FEW070 17/08 A2959 RMK AO2 PK WND 24031/0338 PRESRR SLP020 T01720078
Loading
Personal Weather Stations






























Interactive Weather Map
Tropical Storm Tracking
New forecast layout! Learn more

10-Day Weather Forecast

Advertisements
Track Severe Weather on mobile